Time;durP1;ratioP1;P1;durP2;ratioP2;P2;SDS_P1;SDS_P2;PMS_P1;PMS_P2;Temp;Humidity;BMP_temperature;BMP_pressure;BME280_temperature;BME280_humidity;BME280_pressure;Samples;Min_cycle;Max_cycle;Signal;HPM_P1;HPM_P2
2022/10/09 00:02:13;;;;;;;13.05;2.83;;;;;;;;;;6330811;22;20023;-50
2022/10/09 00:04:41;;;;;;;13.00;3.00;;;;;;;;;;6330402;22;20055;-47
2022/10/09 00:07:16;;;;;;;14.55;3.50;;;;;;;;;;6333192;22;20018;-49
2022/10/09 00:09:43;;;;;;;18.08;3.35;;;;;;;;;;6331176;22;20485;-47
2022/10/09 00:12:17;;;;;;;20.20;3.15;;;;;;;;;;6330890;22;20531;-49
2022/10/09 00:14:45;;;;;;;27.05;3.20;;;;;;;;;;6330628;22;20377;-47
2022/10/09 00:17:18;;;;;;;14.32;3.22;;;;;;;;;;6331458;22;20023;-58
2022/10/09 00:19:46;;;;;;;15.50;2.80;;;;;;;;;;6331500;22;20093;-59
2022/10/09 00:22:13;;;;;;;18.73;2.70;;;;;;;;;;6332166;22;20137;-49
2022/10/09 00:24:46;;;;;;;12.55;2.60;;;;;;;;;;6330300;22;20022;-50
2022/10/09 00:27:13;;;;;;;18.30;3.50;;;;;;;;;;6330807;22;20102;-50
2022/10/09 00:29:48;;;;;;;17.45;3.00;;;;;;;;;;6330489;22;20351;-48
2022/10/09 00:32:15;;;;;;;18.70;3.97;;;;;;;;;;6305879;22;20616;-47
2022/10/09 00:34:42;;;;;;;25.05;2.92;;;;;;;;;;6332584;22;20021;-46
2022/10/09 00:37:15;;;;;;;19.10;3.03;;;;;;;;;;6334691;22;20026;-60
2022/10/09 00:39:43;;;;;;;18.52;3.03;;;;;;;;;;6332618;22;20573;-60
2022/10/09 00:42:16;;;;;;;31.75;3.08;;;;;;;;;;6333769;22;20073;-59
2022/10/09 00:45:01;;;;;;;18.15;2.90;;;;;;;;;;6330925;22;20050;-59
2022/10/09 00:47:43;;;;;;;13.77;2.83;;;;;;;;;;6333339;22;20097;-59
2022/10/09 00:50:26;;;;;;;12.55;2.88;;;;;;;;;;6334367;22;20022;-59
2022/10/09 00:52:54;;;;;;;14.27;3.20;;;;;;;;;;6333916;22;20486;-59
2022/10/09 00:55:29;;;;;;;15.43;3.30;;;;;;;;;;6305340;22;20019;-74
2022/10/09 00:57:58;;;;;;;14.63;2.75;;;;;;;;;;6333676;22;20539;-49
2022/10/09 01:00:33;;;;;;;14.68;3.03;;;;;;;;;;6333524;22;20033;-74
2022/10/09 01:03:00;;;;;;;24.70;3.42;;;;;;;;;;6330868;22;20033;-73
2022/10/09 01:05:47;;;;;;;11.98;3.22;;;;;;;;;;6333292;22;20416;-73
2022/10/09 01:08:35;;;;;;;14.23;3.08;;;;;;;;;;6290118;22;20021;-73
2022/10/09 01:11:41;;;;;;;17.63;3.28;;;;;;;;;;6331897;22;20021;-73
2022/10/09 01:14:21;;;;;;;16.25;3.33;;;;;;;;;;6236374;23;20067;-60
2022/10/09 01:17:09;;;;;;;16.60;3.03;;;;;;;;;;6235872;23;20095;-67
2022/10/09 01:20:05;;;;;;;15.45;3.28;;;;;;;;;;6309901;22;20347;-61
2022/10/09 01:22:35;;;;;;;13.07;3.20;;;;;;;;;;6320156;22;20037;-61
2022/10/09 01:25:23;;;;;;;9.68;2.55;;;;;;;;;;6331528;22;20104;-61
2022/10/09 01:27:50;;;;;;;14.45;3.40;;;;;;;;;;6332540;22;20062;-59
2022/10/09 01:30:24;;;;;;;13.60;3.20;;;;;;;;;;6307787;22;20029;-61
2022/10/09 01:32:51;;;;;;;;;;;;;;;;;;6333997;22;20061;-48
2022/10/09 01:35:25;;;;;;;14.68;3.20;;;;;;;;;;6333128;22;19914;-47
2022/10/09 01:37:53;;;;;;;18.63;3.70;;;;;;;;;;6334769;22;20014;-59
2022/10/09 01:40:28;;;;;;;15.32;3.28;;;;;;;;;;6330691;22;20094;-59
2022/10/09 01:42:55;;;;;;;;;;;;;;;;;;6333833;22;20101;-59
2022/10/09 01:45:22;;;;;;;20.38;3.30;;;;;;;;;;6330820;22;19918;-59
2022/10/09 01:47:56;;;;;;;12.30;3.15;;;;;;;;;;6332260;22;20021;-59
2022/10/09 01:50:28;;;;;;;27.88;3.30;;;;;;;;;;6333565;22;20019;-59
2022/10/09 01:53:11;;;;;;;14.32;2.78;;;;;;;;;;6331607;22;20027;-60
2022/10/09 01:55:44;;;;;;;14.90;3.40;;;;;;;;;;6332575;22;20443;-60
2022/10/09 01:58:21;;;;;;;14.00;2.70;;;;;;;;;;6333053;22;20030;-61
2022/10/09 02:00:52;;;;;;;11.60;2.70;;;;;;;;;;6332860;22;20023;-61
2022/10/09 02:03:27;;;;;;;15.32;2.92;;;;;;;;;;6331358;22;20059;-61
2022/10/09 02:05:56;;;;;;;16.05;2.78;;;;;;;;;;6332970;22;20351;-60
2022/10/09 02:08:24;;;;;;;12.85;2.92;;;;;;;;;;6330894;22;20022;-61
2022/10/09 02:10:59;;;;;;;16.92;2.70;;;;;;;;;;6332531;22;20322;-59
2022/10/09 02:13:26;;;;;;;17.88;2.78;;;;;;;;;;6333654;22;20403;-50
2022/10/09 02:16:03;;;;;;;14.00;3.08;;;;;;;;;;6333017;22;20019;-66
2022/10/09 02:18:40;;;;;;;14.20;3.30;;;;;;;;;;6332468;22;20022;-66
2022/10/09 02:21:15;;;;;;;21.00;3.38;;;;;;;;;;6330577;22;20019;-67
2022/10/09 02:23:50;;;;;;;20.92;3.72;;;;;;;;;;6331322;22;20029;-67
2022/10/09 02:26:17;;;;;;;14.57;3.17;;;;;;;;;;6328844;22;20025;-66
2022/10/09 02:28:52;;;;;;;19.35;3.15;;;;;;;;;;6331779;22;20018;-66
2022/10/09 02:31:25;;;;;;;22.60;2.97;;;;;;;;;;6332260;22;20027;-51
2022/10/09 02:34:00;;;;;;;18.98;3.13;;;;;;;;;;6332923;22;20027;-67
2022/10/09 02:36:28;;;;;;;18.38;3.03;;;;;;;;;;6331548;22;20025;-67
2022/10/09 02:38:55;;;;;;;;;;;;;;;;;;6305691;22;20514;-67
2022/10/09 02:41:29;;;;;;;13.27;3.35;;;;;;;;;;6330228;22;19918;-67
2022/10/09 02:43:56;;;;;;;11.80;3.42;;;;;;;;;;6331532;22;20026;-67
2022/10/09 02:46:39;;;;;;;15.13;3.15;;;;;;;;;;6269475;22;20016;-66
2022/10/09 02:49:07;;;;;;;12.02;3.25;;;;;;;;;;6269701;22;20445;-73
2022/10/09 02:51:40;;;;;;;20.60;3.50;;;;;;;;;;6267246;22;20020;-67
2022/10/09 02:54:14;;;;;;;15.00;2.90;;;;;;;;;;6268303;22;20016;-52
2022/10/09 02:56:48;;;;;;;20.40;4.22;;;;;;;;;;6269388;22;20103;-48
2022/10/09 02:59:16;;;;;;;18.38;3.40;;;;;;;;;;6270812;22;20353;-47
2022/10/09 03:01:43;;;;;;;20.13;3.38;;;;;;;;;;6269355;22;20412;-48
2022/10/09 03:04:17;;;;;;;24.90;3.20;;;;;;;;;;6269519;22;20023;-49
2022/10/09 03:06:44;;;;;;;16.60;2.90;;;;;;;;;;6269100;22;20115;-49
2022/10/09 03:09:17;;;;;;;19.85;4.10;;;;;;;;;;6268758;22;20016;-59
2022/10/09 03:11:45;;;;;;;29.08;3.88;;;;;;;;;;6269776;22;20464;-48
2022/10/09 03:14:12;;;;;;;23.42;3.78;;;;;;;;;;6270292;22;20062;-47
2022/10/09 03:16:45;;;;;;;14.68;3.08;;;;;;;;;;6266249;22;20034;-50
2022/10/09 03:19:13;;;;;;;26.48;2.83;;;;;;;;;;6270218;22;20020;-47
2022/10/09 03:21:46;;;;;;;21.77;3.72;;;;;;;;;;6269096;22;20026;-49
2022/10/09 03:24:14;;;;;;;26.17;3.30;;;;;;;;;;6269224;22;20633;-48
2022/10/09 03:26:41;;;;;;;28.73;3.53;;;;;;;;;;6269621;22;20024;-47
2022/10/09 03:29:15;;;;;;;24.98;4.03;;;;;;;;;;6269935;22;20035;-64
2022/10/09 03:31:42;;;;;;;12.07;3.03;;;;;;;;;;6268492;22;20508;-59
2022/10/09 03:34:19;;;;;;;17.58;3.83;;;;;;;;;;6269627;22;20522;-59
2022/10/09 03:36:46;;;;;;;16.30;3.45;;;;;;;;;;6268877;22;20338;-59
2022/10/09 03:39:13;;;;;;;15.02;2.70;;;;;;;;;;6268392;22;20094;-59
2022/10/09 03:41:47;;;;;;;13.20;3.13;;;;;;;;;;6269532;22;20019;-59
2022/10/09 03:44:27;;;;;;;22.05;3.63;;;;;;;;;;6273101;22;20024;-58
2022/10/09 03:47:02;;;;;;;66.47;4.70;;;;;;;;;;6331984;22;20093;-66
2022/10/09 03:49:29;;;;;;;25.17;3.63;;;;;;;;;;6332970;22;20029;-51
2022/10/09 03:51:56;;;;;;;12.55;2.83;;;;;;;;;;6330245;22;20029;-59
2022/10/09 03:54:30;;;;;;;16.15;3.22;;;;;;;;;;6332470;22;20106;-60
2022/10/09 03:56:57;;;;;;;19.98;3.75;;;;;;;;;;6331152;22;20560;-59
2022/10/09 03:59:30;;;;;;;17.65;2.97;;;;;;;;;;6329618;22;20348;-58
2022/10/09 04:01:58;;;;;;;15.63;2.70;;;;;;;;;;6331861;22;20121;-58
2022/10/09 04:04:25;;;;;;;20.73;3.63;;;;;;;;;;6331076;22;20070;-59
2022/10/09 04:06:58;;;;;;;26.45;3.83;;;;;;;;;;6330144;22;20045;-49
2022/10/09 04:09:26;;;;;;;28.88;3.85;;;;;;;;;;6332303;22;20030;-67
2022/10/09 04:11:59;;;;;;;35.17;3.35;;;;;;;;;;6331856;22;20037;-67
2022/10/09 04:14:27;;;;;;;24.25;3.45;;;;;;;;;;6330607;22;20090;-68
2022/10/09 04:16:54;;;;;;;25.00;3.38;;;;;;;;;;6331536;22;20018;-67
2022/10/09 04:19:27;;;;;;;14.70;2.67;;;;;;;;;;6332545;22;20021;-67
2022/10/09 04:21:55;;;;;;;23.92;2.90;;;;;;;;;;6329805;22;20097;-67
2022/10/09 04:24:29;;;;;;;20.35;3.10;;;;;;;;;;6331997;22;20105;-50
2022/10/09 04:26:56;;;;;;;14.45;3.40;;;;;;;;;;6332459;22;20025;-49
2022/10/09 04:29:23;;;;;;;23.08;3.35;;;;;;;;;;6331582;22;20029;-68
2022/10/09 04:31:56;;;;;;;16.92;2.88;;;;;;;;;;6332081;22;20014;-68
2022/10/09 04:34:24;;;;;;;19.52;3.10;;;;;;;;;;6331448;22;20061;-67
2022/10/09 04:36:57;;;;;;;16.88;2.80;;;;;;;;;;6331999;22;20460;-67
2022/10/09 04:39:26;;;;;;;21.55;3.10;;;;;;;;;;6331457;22;20014;-67
2022/10/09 04:41:53;;;;;;;19.90;2.97;;;;;;;;;;6332510;22;20018;-67
2022/10/09 04:44:39;;;;;;;16.95;3.30;;;;;;;;;;6329021;22;20031;-58
2022/10/09 04:47:13;;;;;;;23.98;3.30;;;;;;;;;;6330682;22;20109;-66
2022/10/09 04:49:48;;;;;;;16.58;2.83;;;;;;;;;;6332471;22;20366;-67
2022/10/09 04:52:15;;;;;;;13.32;2.95;;;;;;;;;;6330478;22;20019;-67
2022/10/09 04:54:42;;;;;;;22.48;3.35;;;;;;;;;;6332425;22;20530;-67
2022/10/09 04:57:16;;;;;;;17.15;2.95;;;;;;;;;;6331027;22;20563;-67
2022/10/09 04:59:43;;;;;;;38.88;3.58;;;;;;;;;;6330534;22;20019;-67
2022/10/09 05:02:10;;;;;;;17.77;2.65;;;;;;;;;;6328580;22;20094;-74
2022/10/09 05:04:45;;;;;;;27.73;3.22;;;;;;;;;;6332198;22;20027;-56
2022/10/09 05:07:12;;;;;;;16.13;2.40;;;;;;;;;;6330474;22;20392;-74
2022/10/09 05:09:39;;;;;;;15.55;2.72;;;;;;;;;;6330365;22;20101;-74
2022/10/09 05:12:14;;;;;;;12.50;2.50;;;;;;;;;;6332552;22;20037;-74
2022/10/09 05:14:41;;;;;;;16.98;2.90;;;;;;;;;;6330636;22;20019;-73
2022/10/09 05:17:15;;;;;;;17.38;3.03;;;;;;;;;;6333418;22;20582;-74
2022/10/09 05:19:48;;;;;;;15.07;2.40;;;;;;;;;;6332539;22;20014;-73
2022/10/09 05:22:22;;;;;;;13.25;3.05;;;;;;;;;;6332900;22;20343;-66
2022/10/09 05:24:49;;;;;;;18.70;2.60;;;;;;;;;;6331790;22;20033;-57
2022/10/09 05:27:16;;;;;;;14.70;3.00;;;;;;;;;;6333788;22;20098;-58
2022/10/09 05:29:50;;;;;;;13.30;2.60;;;;;;;;;;6331564;22;20539;-57
2022/10/09 05:32:17;;;;;;;8.77;2.78;;;;;;;;;;6333722;22;20069;-59
2022/10/09 05:34:51;;;;;;;16.58;2.72;;;;;;;;;;6333210;22;20072;-59
2022/10/09 05:37:18;;;;;;;18.30;2.85;;;;;;;;;;6333417;22;20531;-59
2022/10/09 05:39:45;;;;;;;18.20;2.78;;;;;;;;;;6333032;22;20018;-59
2022/10/09 05:42:19;;;;;;;16.92;3.35;;;;;;;;;;6332917;22;20023;-47
2022/10/09 05:44:58;;;;;;;12.35;3.10;;;;;;;;;;6329604;22;20125;-74
2022/10/09 05:47:33;;;;;;;22.08;2.65;;;;;;;;;;6334480;22;20025;-74
2022/10/09 05:50:00;;;;;;;27.73;3.55;;;;;;;;;;6335247;22;20018;-75
2022/10/09 05:52:27;;;;;;;13.70;3.03;;;;;;;;;;6332949;22;20094;-75
2022/10/09 05:55:01;;;;;;;19.85;2.78;;;;;;;;;;6334694;22;20026;-75
2022/10/09 05:57:28;;;;;;;19.88;2.45;;;;;;;;;;6332347;22;20025;-74
2022/10/09 06:00:02;;;;;;;22.17;2.65;;;;;;;;;;6332419;22;20037;-72
2022/10/09 06:02:29;;;;;;;12.98;2.55;;;;;;;;;;6331535;22;20730;-60
2022/10/09 06:04:56;;;;;;;16.17;2.83;;;;;;;;;;6333217;22;20023;-59
2022/10/09 06:07:30;;;;;;;12.95;2.42;;;;;;;;;;6331266;22;20018;-60
2022/10/09 06:09:57;;;;;;;9.23;2.38;;;;;;;;;;6333128;22;20023;-59
2022/10/09 06:12:31;;;;;;;12.23;2.42;;;;;;;;;;6331184;22;20023;-60
2022/10/09 06:14:58;;;;;;;28.05;3.25;;;;;;;;;;6333082;22;20015;-60
2022/10/09 06:17:25;;;;;;;13.18;2.95;;;;;;;;;;6331793;22;20019;-60
2022/10/09 06:19:59;;;;;;;18.27;2.67;;;;;;;;;;6330992;22;20019;-49
2022/10/09 06:22:26;;;;;;;18.55;2.95;;;;;;;;;;6331007;22;20050;-71
2022/10/09 06:24:53;;;;;;;10.15;2.70;;;;;;;;;;6332020;22;20049;-71
2022/10/09 06:27:27;;;;;;;25.92;3.42;;;;;;;;;;6328521;22;20097;-72
2022/10/09 06:29:54;;;;;;;;;;;;;;;;;;6334636;22;20019;-71
2022/10/09 06:32:29;;;;;;;19.05;2.42;;;;;;;;;;6332370;22;20001;-72
2022/10/09 06:34:56;;;;;;;7.70;2.58;;;;;;;;;;6333455;22;20464;-72
2022/10/09 06:37:23;;;;;;;18.42;3.28;;;;;;;;;;6334454;22;20023;-62
2022/10/09 06:39:57;;;;;;;19.55;3.22;;;;;;;;;;6333642;22;20488;-60
2022/10/09 06:42:24;;;;;;;17.92;2.78;;;;;;;;;;6331861;22;20097;-51
2022/10/09 06:45:11;;;;;;;23.08;3.28;;;;;;;;;;6331115;22;20486;-47
2022/10/09 06:47:45;;;;;;;30.85;4.00;;;;;;;;;;6332977;22;20093;-49
2022/10/09 06:50:20;;;;;;;22.40;4.50;;;;;;;;;;6333368;22;20019;-49
2022/10/09 06:52:47;;;;;;;11.15;3.55;;;;;;;;;;6331531;22;20043;-51
2022/10/09 06:55:14;;;;;;;7.25;2.75;;;;;;;;;;6330211;22;20463;-48
2022/10/09 06:57:54;;;;;;;9.52;2.45;;;;;;;;;;6325259;22;20026;-63
2022/10/09 07:00:21;;;;;;;12.75;2.30;;;;;;;;;;6329486;22;20033;-73
2022/10/09 07:02:56;;;;;;;12.57;3.05;;;;;;;;;;6328540;22;20103;-73
2022/10/09 07:05:23;;;;;;;12.30;3.35;;;;;;;;;;6328938;22;20030;-73
2022/10/09 07:07:50;;;;;;;8.63;2.78;;;;;;;;;;6314449;22;20022;-66
2022/10/09 07:10:24;;;;;;;15.43;3.20;;;;;;;;;;6330749;22;20030;-73
2022/10/09 07:12:51;;;;;;;;;;;;;;;;;;6332231;22;20517;-72
2022/10/09 07:15:25;;;;;;;20.25;2.90;;;;;;;;;;6321069;22;19996;-74
2022/10/09 07:17:52;;;;;;;17.15;3.58;;;;;;;;;;6325593;22;20022;-68
2022/10/09 07:20:19;;;;;;;15.88;3.47;;;;;;;;;;6332453;22;20356;-59
2022/10/09 07:22:53;;;;;;;11.77;2.42;;;;;;;;;;6329902;22;20546;-59
2022/10/09 07:25:26;;;;;;;10.82;2.70;;;;;;;;;;6327774;22;20021;-59
2022/10/09 07:27:54;;;;;;;9.70;2.53;;;;;;;;;;6331650;22;20371;-58
2022/10/09 07:30:47;;;;;;;20.40;3.20;;;;;;;;;;6333138;22;20018;-59
2022/10/09 07:33:37;;;;;;;12.32;3.85;;;;;;;;;;6332128;22;20026;-57
2022/10/09 07:36:30;;;;;;;10.30;2.88;;;;;;;;;;6330691;22;20121;-49
2022/10/09 07:39:18;;;;;;;13.90;2.97;;;;;;;;;;6330811;22;20029;-60
2022/10/09 07:42:11;;;;;;;8.50;2.63;;;;;;;;;;6329903;22;20019;-62
2022/10/09 07:45:05;;;;;;;14.20;2.78;;;;;;;;;;6330397;22;20384;-61
2022/10/09 07:47:39;;;;;;;21.23;2.90;;;;;;;;;;6327231;22;20093;-60
2022/10/09 07:50:07;;;;;;;9.40;2.53;;;;;;;;;;6331471;22;20022;-60
2022/10/09 07:52:34;;;;;;;15.13;2.25;;;;;;;;;;6330733;22;20019;-60
2022/10/09 07:55:07;;;;;;;12.25;2.35;;;;;;;;;;6329723;22;20125;-50
2022/10/09 07:57:35;;;;;;;10.57;3.08;;;;;;;;;;6331608;22;20101;-61
2022/10/09 08:00:09;;;;;;;13.90;3.30;;;;;;;;;;6331777;22;20029;-61
2022/10/09 08:02:36;;;;;;;;;;;;;;;;;;6330096;22;20387;-61
2022/10/09 08:05:10;;;;;;;10.32;2.20;;;;;;;;;;6331112;22;19929;-60
2022/10/09 08:07:37;;;;;;;;;;;;;;;;;;6332995;22;20018;-61
2022/10/09 08:10:05;;;;;;;17.98;1.77;;;;;;;;;;6332265;22;19914;-60
2022/10/09 08:12:38;;;;;;;21.25;3.03;;;;;;;;;;6332625;22;20030;-48
2022/10/09 08:15:06;;;;;;;16.42;2.65;;;;;;;;;;6333556;22;20014;-49
2022/10/09 08:17:40;;;;;;;11.75;2.33;;;;;;;;;;6332658;22;20046;-60
2022/10/09 08:20:07;;;;;;;9.73;2.28;;;;;;;;;;6330594;22;20062;-61
2022/10/09 08:22:34;;;;;;;6.30;1.63;;;;;;;;;;6331902;22;20472;-61
2022/10/09 08:25:08;;;;;;;12.68;1.75;;;;;;;;;;6329130;22;20025;-60
2022/10/09 08:27:35;;;;;;;10.90;1.55;;;;;;;;;;6328691;22;20015;-60
2022/10/09 08:30:09;;;;;;;6.32;1.85;;;;;;;;;;6332802;22;20449;-60
2022/10/09 08:32:36;;;;;;;11.02;1.60;;;;;;;;;;6332279;22;20025;-61
2022/10/09 08:35:10;;;;;;;9.48;2.80;;;;;;;;;;6332161;22;20051;-62
2022/10/09 08:37:37;;;;;;;21.45;2.13;;;;;;;;;;6332641;22;20014;-60
2022/10/09 08:40:16;;;;;;;10.25;1.33;;;;;;;;;;6331669;22;20094;-61
2022/10/09 08:42:49;;;;;;;10.93;1.70;;;;;;;;;;6331902;22;20015;-61
2022/10/09 08:45:29;;;;;;;12.15;1.88;;;;;;;;;;6330051;22;20050;-60
2022/10/09 08:48:11;;;;;;;21.23;2.22;;;;;;;;;;6328812;22;20026;-61
2022/10/09 08:50:48;;;;;;;12.55;1.95;;;;;;;;;;6334243;22;20022;-61
2022/10/09 08:53:27;;;;;;;12.90;1.90;;;;;;;;;;6334414;22;20018;-61
2022/10/09 08:56:02;;;;;;;7.07;1.42;;;;;;;;;;6333417;22;20019;-61
2022/10/09 08:58:34;;;;;;;7.15;1.25;;;;;;;;;;6330875;22;20506;-61
2022/10/09 09:01:08;;;;;;;;;;;;;;;;;;6332530;22;20089;-61
2022/10/09 09:04:00;;;;;;;10.10;1.60;;;;;;;;;;6331576;22;20395;-61
2022/10/09 09:06:34;;;;;;;10.70;1.83;;;;;;;;;;6331784;22;20563;-61
2022/10/09 09:09:04;;;;;;;9.65;1.70;;;;;;;;;;6332370;22;20349;-61
2022/10/09 09:11:38;;;;;;;12.80;1.50;;;;;;;;;;6332415;22;20530;-49
2022/10/09 09:14:24;;;;;;;9.07;1.50;;;;;;;;;;6333049;22;20463;-60
2022/10/09 09:17:09;;;;;;;10.07;1.80;;;;;;;;;;6331341;22;20349;-60
2022/10/09 09:20:07;;;;;;;6.78;1.60;;;;;;;;;;6331432;22;20550;-61
2022/10/09 09:22:36;;;;;;;7.22;1.35;;;;;;;;;;6320556;22;20041;-60
2022/10/09 09:25:33;;;;;;;4.25;1.05;;;;;;;;;;6332745;22;20104;-59
2022/10/09 09:28:32;;;;;;;7.85;1.48;;;;;;;;;;6332944;22;20015;-61
2022/10/09 09:31:12;;;;;;;13.10;2.20;;;;;;;;;;6332491;22;20505;-60
2022/10/09 09:33:43;;;;;;;6.60;1.20;;;;;;;;;;6329670;22;20026;-50
2022/10/09 09:36:31;;;;;;;14.23;1.85;;;;;;;;;;6331105;22;20019;-48
2022/10/09 09:38:58;;;;;;;8.75;1.70;;;;;;;;;;6332472;22;20656;-50
2022/10/09 14:02:00;;;;;;;12.60;2.25;;;;;;;;;;6317161;22;20751;-60
2022/10/09 14:04:29;;;;;;;8.68;1.67;;;;;;;;;;6326846;22;20737;-61
2022/10/09 14:07:03;;;;;;;13.38;1.67;;;;;;;;;;6325340;22;20403;-61
2022/10/09 14:09:30;;;;;;;9.90;1.90;;;;;;;;;;6329163;22;20062;-61
2022/10/09 14:11:57;;;;;;;15.55;2.05;;;;;;;;;;6330546;22;20363;-61
2022/10/09 14:14:31;;;;;;;13.90;2.90;;;;;;;;;;6329187;22;20025;-61
2022/10/09 14:16:58;;;;;;;14.38;1.75;;;;;;;;;;6329942;22;20025;-61
2022/10/09 14:19:32;;;;;;;12.95;2.22;;;;;;;;;;6331077;22;20354;-61
2022/10/09 14:21:59;;;;;;;9.40;2.40;;;;;;;;;;6328780;22;20019;-61
2022/10/09 14:24:26;;;;;;;15.35;2.35;;;;;;;;;;6330138;22;20080;-61
2022/10/09 14:27:00;;;;;;;10.18;2.45;;;;;;;;;;6327277;22;20386;-60
2022/10/09 14:29:27;;;;;;;15.10;2.30;;;;;;;;;;6328972;22;20102;-61
2022/10/09 14:32:00;;;;;;;13.70;2.00;;;;;;;;;;6329213;22;20032;-60
2022/10/09 14:34:28;;;;;;;8.85;2.13;;;;;;;;;;6331796;22;20018;-61
2022/10/09 14:36:55;;;;;;;10.27;2.30;;;;;;;;;;6329745;22;20015;-51
2022/10/09 14:39:42;;;;;;;12.07;2.28;;;;;;;;;;6332193;22;20027;-61
2022/10/09 14:42:10;;;;;;;10.90;2.08;;;;;;;;;;6330601;22;20018;-62
2022/10/09 14:44:44;;;;;;;13.00;2.47;;;;;;;;;;6329515;22;20371;-62
2022/10/09 14:47:11;;;;;;;8.60;2.33;;;;;;;;;;6327019;22;20025;-61
2022/10/09 14:49:38;;;;;;;13.68;2.35;;;;;;;;;;6328441;22;20387;-61
2022/10/09 14:52:13;;;;;;;11.32;2.05;;;;;;;;;;6302972;22;20025;-61
2022/10/09 14:54:40;;;;;;;14.60;2.60;;;;;;;;;;6329654;22;20098;-60
2022/10/09 14:57:15;;;;;;;10.02;2.30;;;;;;;;;;6329178;22;20478;-61
2022/10/09 14:59:54;;;;;;;8.50;1.92;;;;;;;;;;6326930;22;20507;-61
2022/10/09 15:02:29;;;;;;;13.63;2.40;;;;;;;;;;6268474;22;20062;-61
2022/10/09 15:04:57;;;;;;;17.17;2.78;;;;;;;;;;6268761;22;20067;-61
2022/10/09 15:07:26;;;;;;;9.65;1.90;;;;;;;;;;6270306;22;20099;-60
2022/10/09 15:10:01;;;;;;;16.38;2.45;;;;;;;;;;6268047;22;20030;-60
2022/10/09 15:12:34;;;;;;;11.10;2.40;;;;;;;;;;6269121;22;20402;-60
2022/10/09 15:15:09;;;;;;;13.30;2.50;;;;;;;;;;6268965;22;20102;-50
2022/10/09 15:17:36;;;;;;;12.57;1.98;;;;;;;;;;6269586;22;20019;-60
2022/10/09 15:20:10;;;;;;;11.85;2.53;;;;;;;;;;6268763;22;20520;-60
2022/10/09 15:22:37;;;;;;;16.83;3.10;;;;;;;;;;6270078;22;20387;-60
2022/10/09 15:25:04;;;;;;;10.27;2.00;;;;;;;;;;6266965;22;20028;-59
2022/10/09 15:27:39;;;;;;;12.82;2.58;;;;;;;;;;6268230;22;20326;-59
2022/10/09 15:30:06;;;;;;;13.35;3.50;;;;;;;;;;6268572;22;20107;-60
2022/10/09 15:32:40;;;;;;;18.13;6.57;;;;;;;;;;6268353;22;20023;-61
2022/10/09 15:35:07;;;;;;;14.02;3.53;;;;;;;;;;6268204;22;20024;-60
2022/10/09 15:37:34;;;;;;;14.55;2.10;;;;;;;;;;6268222;22;20026;-59
2022/10/09 15:40:12;;;;;;;;;;;;;;;;;;6270078;22;20027;-60
2022/10/09 15:42:40;;;;;;;15.02;2.35;;;;;;;;;;6269494;22;20316;-60
2022/10/09 15:45:14;;;;;;;14.90;2.47;;;;;;;;;;6268448;22;20380;-60
2022/10/09 15:47:41;;;;;;;10.43;2.45;;;;;;;;;;6269756;22;20099;-60
2022/10/09 15:50:17;;;;;;;13.73;2.40;;;;;;;;;;6264722;22;20024;-60
2022/10/09 15:52:44;;;;;;;11.70;2.40;;;;;;;;;;6266161;22;20342;-52
2022/10/09 15:55:18;;;;;;;17.55;2.78;;;;;;;;;;6266350;22;20573;-61
2022/10/09 15:57:45;;;;;;;16.38;2.70;;;;;;;;;;6266471;22;20099;-61
2022/10/09 16:00:13;;;;;;;10.98;2.17;;;;;;;;;;6274542;22;20038;-61
2022/10/09 16:02:53;;;;;;;14.60;2.28;;;;;;;;;;6302373;22;20018;-62
2022/10/09 16:05:21;;;;;;;16.63;2.45;;;;;;;;;;6326247;22;20044;-62
2022/10/09 16:07:55;;;;;;;13.63;2.15;;;;;;;;;;6327212;22;20021;-62
2022/10/09 16:10:22;;;;;;;19.10;2.92;;;;;;;;;;6329149;22;20475;-59
2022/10/09 16:12:49;;;;;;;11.48;2.70;;;;;;;;;;6327105;22;20019;-59
2022/10/09 16:15:24;;;;;;;22.67;2.60;;;;;;;;;;6326993;22;20025;-60
2022/10/09 16:17:51;;;;;;;17.83;2.55;;;;;;;;;;6328688;22;20087;-59
2022/10/09 16:20:25;;;;;;;10.43;1.88;;;;;;;;;;6327940;22;20029;-59
2022/10/09 16:22:52;;;;;;;;;;;;;;;;;;6327637;22;20057;-59
2022/10/09 16:25:26;;;;;;;18.67;2.78;;;;;;;;;;6329031;22;19953;-60
2022/10/09 16:27:53;;;;;;;16.60;3.00;;;;;;;;;;6327133;22;20023;-62
2022/10/09 16:30:20;;;;;;;21.92;3.25;;;;;;;;;;6327810;22;20352;-60
2022/10/09 16:32:54;;;;;;;18.42;3.67;;;;;;;;;;6327978;22;20018;-49
2022/10/09 16:35:21;;;;;;;15.63;3.05;;;;;;;;;;6326108;22;20031;-51
2022/10/09 16:37:55;;;;;;;11.80;2.30;;;;;;;;;;6326569;22;20019;-50
2022/10/09 16:40:22;;;;;;;17.25;2.85;;;;;;;;;;6328000;22;20025;-53
2022/10/09 16:43:09;;;;;;;21.83;3.28;;;;;;;;;;6327164;22;20019;-53
2022/10/09 16:45:44;;;;;;;19.23;3.10;;;;;;;;;;6326600;22;20419;-51
2022/10/09 16:48:11;;;;;;;15.85;3.70;;;;;;;;;;6329011;22;20357;-59
2022/10/09 16:50:45;;;;;;;13.95;2.88;;;;;;;;;;6327059;22;20022;-62
2022/10/09 16:53:12;;;;;;;15.07;2.75;;;;;;;;;;6326302;22;20029;-62
2022/10/09 16:55:39;;;;;;;21.52;3.17;;;;;;;;;;6327810;22;20045;-62
2022/10/09 16:58:13;;;;;;;23.92;3.80;;;;;;;;;;6300094;22;20023;-62
2022/10/09 17:00:53;;;;;;;19.65;3.60;;;;;;;;;;6323718;22;20038;-62
2022/10/09 17:03:28;;;;;;;18.35;2.72;;;;;;;;;;6327280;22;20422;-63
2022/10/09 17:06:06;;;;;;;14.32;2.90;;;;;;;;;;6326289;22;20097;-51
2022/10/09 17:08:33;;;;;;;16.13;3.10;;;;;;;;;;6326829;22;20023;-62
2022/10/09 17:11:00;;;;;;;16.80;3.35;;;;;;;;;;6327877;22;20123;-53
2022/10/09 17:13:34;;;;;;;14.80;2.90;;;;;;;;;;6328173;22;20557;-53
2022/10/09 17:16:04;;;;;;;17.77;2.90;;;;;;;;;;6327557;22;20561;-53
2022/10/09 17:18:53;;;;;;;19.67;3.38;;;;;;;;;;6329739;22;20025;-50
2022/10/09 17:21:20;;;;;;;13.75;2.80;;;;;;;;;;6325771;22;20327;-49
2022/10/09 17:24:01;;;;;;;12.15;2.70;;;;;;;;;;6327525;22;20398;-52
2022/10/09 17:26:29;;;;;;;16.05;2.92;;;;;;;;;;6329022;22;20026;-61
2022/10/09 17:29:03;;;;;;;16.20;2.83;;;;;;;;;;6328307;22;20102;-61
2022/10/09 17:31:30;;;;;;;10.93;2.70;;;;;;;;;;6327913;22;20022;-61
2022/10/09 17:34:05;;;;;;;13.48;3.25;;;;;;;;;;6324354;22;20019;-61
2022/10/09 17:36:36;;;;;;;13.02;2.83;;;;;;;;;;6329175;22;20029;-61
2022/10/09 17:39:04;;;;;;;12.98;2.92;;;;;;;;;;6329401;22;20102;-61
2022/10/09 17:41:38;;;;;;;15.20;2.97;;;;;;;;;;6328972;22;20022;-61
2022/10/09 17:44:05;;;;;;;13.57;3.40;;;;;;;;;;6327340;22;20022;-61
2022/10/09 17:46:39;;;;;;;21.08;3.00;;;;;;;;;;6329040;22;20352;-62
2022/10/09 17:49:07;;;;;;;17.45;3.35;;;;;;;;;;6327917;22;20093;-63
2022/10/09 17:51:35;;;;;;;13.40;2.95;;;;;;;;;;6329130;22;20019;-63
2022/10/09 17:54:14;;;;;;;9.40;2.85;;;;;;;;;;6328949;22;20025;-63
2022/10/09 17:56:50;;;;;;;22.88;3.03;;;;;;;;;;6327776;22;20083;-62
2022/10/09 17:59:24;;;;;;;21.02;3.40;;;;;;;;;;6328053;22;20029;-62
2022/10/09 18:01:57;;;;;;;18.10;3.63;;;;;;;;;;6327045;22;20038;-62
2022/10/09 18:04:38;;;;;;;16.33;3.65;;;;;;;;;;6326965;22;20467;-60
2022/10/09 18:07:06;;;;;;;17.02;3.47;;;;;;;;;;6328369;22;20023;-59
2022/10/09 18:09:40;;;;;;;15.95;3.67;;;;;;;;;;6329247;22;20022;-60
2022/10/09 18:12:08;;;;;;;16.85;2.95;;;;;;;;;;6329247;22;20497;-60
2022/10/09 18:14:35;;;;;;;15.40;3.05;;;;;;;;;;6329042;22;20025;-59
2022/10/09 18:17:09;;;;;;;20.17;3.13;;;;;;;;;;6328303;22;20025;-60
2022/10/09 18:19:36;;;;;;;12.43;3.17;;;;;;;;;;6328097;22;20033;-59
2022/10/09 18:22:03;;;;;;;18.60;2.70;;;;;;;;;;6329171;22;20019;-59
2022/10/09 18:24:37;;;;;;;17.73;3.00;;;;;;;;;;6325795;22;20019;-59
2022/10/09 18:27:04;;;;;;;23.88;3.35;;;;;;;;;;6327241;22;20065;-61
2022/10/09 18:29:38;;;;;;;24.60;3.45;;;;;;;;;;6327421;22;20023;-61
2022/10/09 18:32:05;;;;;;;24.83;3.67;;;;;;;;;;6328617;22;20476;-61
2022/10/09 18:34:39;;;;;;;21.02;3.25;;;;;;;;;;6329221;22;20064;-61
2022/10/09 18:37:12;;;;;;;24.80;4.45;;;;;;;;;;6326934;22;20034;-61
2022/10/09 18:39:51;;;;;;;22.60;3.05;;;;;;;;;;6325883;22;20022;-61
2022/10/09 18:42:18;;;;;;;28.35;5.55;;;;;;;;;;6328930;22;20019;-61
2022/10/09 18:44:50;;;;;;;28.27;4.15;;;;;;;;;;6327515;22;20098;-62
2022/10/09 18:47:27;;;;;;;17.08;3.63;;;;;;;;;;6328821;22;20019;-63
2022/10/09 18:50:02;;;;;;;16.52;3.20;;;;;;;;;;6327792;22;20347;-62
2022/10/09 18:52:36;;;;;;;27.85;3.85;;;;;;;;;;6328720;22;20019;-62
2022/10/09 18:55:12;;;;;;;20.65;3.33;;;;;;;;;;6328232;22;20050;-62
2022/10/09 18:57:40;;;;;;;23.60;4.00;;;;;;;;;;6327184;22;20151;-62
2022/10/09 19:00:08;;;;;;;27.48;3.90;;;;;;;;;;6327958;22;20065;-62
2022/10/09 19:02:48;;;;;;;15.02;2.75;;;;;;;;;;6263803;22;20417;-62
2022/10/09 19:05:16;;;;;;;23.17;3.95;;;;;;;;;;6264743;22;20030;-62
2022/10/09 19:07:50;;;;;;;24.38;4.07;;;;;;;;;;6266512;22;20115;-62
2022/10/09 19:10:18;;;;;;;20.00;3.22;;;;;;;;;;6265963;22;20051;-62
2022/10/09 19:12:45;;;;;;;23.60;3.78;;;;;;;;;;6266291;22;20103;-61
2022/10/09 19:15:19;;;;;;;19.67;3.90;;;;;;;;;;6266975;22;20472;-62
2022/10/09 19:17:46;;;;;;;25.50;3.80;;;;;;;;;;6266169;22;20544;-62
2022/10/09 19:20:20;;;;;;;22.83;4.15;;;;;;;;;;6265594;22;20020;-51
2022/10/09 19:22:47;;;;;;;;;;;;;;;;;;6266442;22;20473;-53
2022/10/09 19:25:15;;;;;;;21.08;2.97;;;;;;;;;;6262448;22;20002;-58
2022/10/09 19:27:50;;;;;;;24.27;3.15;;;;;;;;;;6265727;22;20024;-59